Time;durP1;ratioP1;P1;durP2;ratioP2;P2;SDS_P1;SDS_P2;PMS_P1;PMS_P2;Temp;Humidity;BMP_temperature;BMP_pressure;BME280_temperature;BME280_humidity;BME280_pressure;Samples;Min_cycle;Max_cycle;Signal;HPM_P1;HPM_P2
2021/10/16 00:02:14;;;;;;;9.90;5.97;;;9.40;99.90;;;;;;5051526;28;20057;-64
2021/10/16 00:04:40;;;;;;;8.88;4.68;;;9.30;99.90;;;;;;5052132;28;20040;-64
2021/10/16 00:07:05;;;;;;;8.48;4.95;;;9.30;99.90;;;;;;5052404;28;20052;-64
2021/10/16 00:09:31;;;;;;;8.18;5.53;;;9.30;99.90;;;;;;5034902;28;20124;-65
2021/10/16 00:11:57;;;;;;;9.10;5.05;;;9.30;99.90;;;;;;5031142;28;20116;-65
2021/10/16 00:14:22;;;;;;;8.52;5.15;;;9.20;99.90;;;;;;5032617;28;20034;-64
2021/10/16 00:16:48;;;;;;;5.90;4.65;;;9.20;99.90;;;;;;5030809;28;20057;-64
2021/10/16 00:19:14;;;;;;;7.13;4.82;;;9.10;99.90;;;;;;5032573;28;20515;-65
2021/10/16 00:21:39;;;;;;;7.30;5.63;;;9.10;99.90;;;;;;5030311;28;20041;-65
2021/10/16 00:24:05;;;;;;;7.97;5.55;;;9.20;99.90;;;;;;5032374;28;20048;-65
2021/10/16 00:26:31;;;;;;;5.85;4.40;;;9.10;99.90;;;;;;5030405;28;20147;-64
2021/10/16 00:28:57;;;;;;;7.20;4.90;;;9.10;99.90;;;;;;5032045;28;20471;-65
2021/10/16 00:31:23;;;;;;;5.35;4.30;;;9.10;99.90;;;;;;5030884;28;20219;-63
2021/10/16 00:33:49;;;;;;;5.28;4.28;;;9.10;99.90;;;;;;5031858;28;20150;-65
2021/10/16 00:36:14;;;;;;;6.63;4.22;;;9.00;99.90;;;;;;5030881;28;20400;-64
2021/10/16 00:38:40;;;;;;;7.78;4.70;;;9.00;99.90;;;;;;5040063;28;20359;-64
2021/10/16 00:41:06;;;;;;;6.13;4.60;;;9.10;99.90;;;;;;5051993;28;20025;-64
2021/10/16 00:43:31;;;;;;;7.65;4.75;;;9.00;99.90;;;;;;5050141;28;20531;-65
2021/10/16 00:45:57;;;;;;;6.40;4.53;;;9.00;99.90;;;;;;5051972;28;20025;-65
2021/10/16 00:48:22;;;;;;;7.20;5.13;;;9.00;99.90;;;;;;5052145;28;20036;-64
2021/10/16 00:50:48;;;;;;;7.65;4.28;;;9.00;99.90;;;;;;5050896;28;20212;-64
2021/10/16 00:53:15;;;;;;;6.40;4.20;;;9.00;99.90;;;;;;5052088;28;20033;-65
2021/10/16 00:55:41;;;;;;;7.57;4.18;;;8.90;99.90;;;;;;5050561;28;20025;-64
2021/10/16 00:58:08;;;;;;;7.28;4.25;;;8.90;99.90;;;;;;5051530;28;20048;-64
2021/10/16 01:00:33;;;;;;;9.85;4.78;;;9.00;99.90;;;;;;5050739;28;20021;-65
2021/10/16 01:03:02;;;;;;;6.10;4.55;;;8.90;99.90;;;;;;5050229;28;20493;-65
2021/10/16 01:05:27;;;;;;;5.90;4.32;;;8.80;99.90;;;;;;5049518;28;20024;-65
2021/10/16 01:07:53;;;;;;;6.43;4.15;;;8.80;99.90;;;;;;5050236;28;20094;-65
2021/10/16 01:10:19;;;;;;;5.18;3.95;;;8.80;99.90;;;;;;5051676;28;20104;-65
2021/10/16 01:12:45;;;;;;;9.95;4.03;;;8.80;99.90;;;;;;5050337;28;20029;-65
2021/10/16 01:15:13;;;;;;;8.45;5.30;;;8.80;99.90;;;;;;5051380;28;20198;-65
2021/10/16 01:17:40;;;;;;;7.95;5.70;;;8.90;99.90;;;;;;5050375;28;20029;-65
2021/10/16 01:20:10;;;;;;;6.55;4.72;;;8.80;99.90;;;;;;5051228;28;20116;-65
2021/10/16 01:22:41;;;;;;;10.43;5.40;;;8.90;99.90;;;;;;5049196;28;20126;-66
2021/10/16 01:25:13;;;;;;;8.60;5.80;;;8.80;99.90;;;;;;5048061;28;20517;-66
2021/10/16 01:27:40;;;;;;;8.32;6.35;;;8.70;99.90;;;;;;5049548;28;20025;-65
2021/10/16 01:30:08;;;;;;;10.80;6.47;;;8.60;99.90;;;;;;5049654;28;20021;-64
2021/10/16 01:32:34;;;;;;;12.00;7.05;;;8.50;99.90;;;;;;5049217;28;20075;-64
2021/10/16 01:35:01;;;;;;;10.98;6.47;;;8.50;99.90;;;;;;5049657;28;20039;-64
2021/10/16 01:37:26;;;;;;;14.02;7.28;;;8.40;99.90;;;;;;5050681;28;20036;-64
2021/10/16 01:39:52;;;;;;;11.73;6.90;;;8.40;99.90;;;;;;5050406;28;20444;-65
2021/10/16 01:42:17;;;;;;;12.15;6.97;;;8.50;99.90;;;;;;5050927;28;20039;-65
2021/10/16 01:44:43;;;;;;;10.07;7.35;;;8.50;99.90;;;;;;5050467;28;20397;-65
2021/10/16 01:47:09;;;;;;;12.35;7.30;;;8.50;99.90;;;;;;5051180;28;20108;-65
2021/10/16 01:49:36;;;;;;;9.55;7.25;;;8.40;99.90;;;;;;5050288;28;20040;-65
2021/10/16 01:52:03;;;;;;;11.63;7.20;;;8.40;99.90;;;;;;5050780;28;20094;-65
2021/10/16 01:54:29;;;;;;;11.52;7.07;;;8.40;99.90;;;;;;5050541;28;20104;-65
2021/10/16 01:56:55;;;;;;;15.10;8.35;;;8.40;99.90;;;;;;5049935;28;20446;-64
2021/10/16 01:59:22;;;;;;;10.20;7.50;;;8.40;99.90;;;;;;5049289;28;20491;-64
2021/10/16 02:01:48;;;;;;;9.27;7.72;;;8.50;99.90;;;;;;5048776;28;20029;-64
2021/10/16 02:04:15;;;;;;;11.88;7.55;;;8.50;99.90;;;;;;5050560;28;20055;-64
2021/10/16 02:06:42;;;;;;;8.25;7.10;;;8.30;99.90;;;;;;5050066;28;20027;-64
2021/10/16 02:09:09;;;;;;;11.60;7.63;;;8.10;99.90;;;;;;5054084;28;20108;-64
2021/10/16 02:11:35;;;;;;;13.60;7.82;;;8.10;99.90;;;;;;5054093;28;20025;-65
2021/10/16 02:14:02;;;;;;;10.05;8.27;;;8.20;99.90;;;;;;5054862;28;20024;-65
2021/10/16 02:16:27;;;;;;;10.02;8.02;;;8.20;99.90;;;;;;5052005;28;20497;-65
2021/10/16 02:18:54;;;;;;;9.85;6.95;;;8.10;99.90;;;;;;5037914;28;20125;-65
2021/10/16 02:21:20;;;;;;;11.55;7.25;;;8.10;99.90;;;;;;5035307;28;20091;-65
2021/10/16 02:23:46;;;;;;;10.40;7.40;;;8.10;99.90;;;;;;5033527;28;20030;-66
2021/10/16 02:26:12;;;;;;;10.27;8.18;;;8.10;99.90;;;;;;5032832;28;20132;-65
2021/10/16 02:28:37;;;;;;;10.43;7.88;;;8.10;99.90;;;;;;5033737;28;20049;-65
2021/10/16 02:31:03;;;;;;;17.88;7.57;;;8.10;99.90;;;;;;5033023;28;20084;-65
2021/10/16 02:33:29;;;;;;;11.50;7.68;;;8.10;99.90;;;;;;5032846;28;20029;-65
2021/10/16 02:35:54;;;;;;;9.82;7.13;;;8.00;99.90;;;;;;5033770;28;20033;-66
2021/10/16 02:38:20;;;;;;;10.13;7.18;;;8.00;99.90;;;;;;5033989;28;20033;-65
2021/10/16 02:40:46;;;;;;;10.25;7.05;;;8.00;99.90;;;;;;5065584;28;20025;-65
2021/10/16 02:43:11;;;;;;;13.57;7.55;;;8.00;99.90;;;;;;5033832;28;20029;-65
2021/10/16 02:45:37;;;;;;;11.73;7.45;;;8.00;99.90;;;;;;5033715;28;20074;-65
2021/10/16 02:48:03;;;;;;;10.05;7.30;;;8.00;99.90;;;;;;5034015;28;20033;-65
2021/10/16 02:50:29;;;;;;;8.13;6.60;;;7.90;99.90;;;;;;5033905;28;20095;-64
2021/10/16 02:52:54;;;;;;;9.60;6.93;;;7.90;99.90;;;;;;5033250;28;20645;-64
2021/10/16 02:55:20;;;;;;;10.02;7.30;;;7.90;99.90;;;;;;5032496;28;20033;-64
2021/10/16 02:57:46;;;;;;;9.52;6.93;;;7.90;99.90;;;;;;5031875;28;20041;-64
2021/10/16 03:00:12;;;;;;;8.90;7.07;;;7.80;99.90;;;;;;5033613;28;20068;-64
2021/10/16 03:02:38;;;;;;;9.82;7.20;;;7.80;99.90;;;;;;5033351;28;20041;-64
2021/10/16 03:05:05;;;;;;;12.45;7.07;;;7.80;99.90;;;;;;5032615;28;20025;-64
2021/10/16 03:07:31;;;;;;;12.73;7.30;;;7.70;99.90;;;;;;5032392;28;20479;-65
2021/10/16 03:09:57;;;;;;;9.02;7.18;;;7.70;99.90;;;;;;5033362;28;20033;-65
2021/10/16 03:12:23;;;;;;;13.00;7.63;;;7.60;99.90;;;;;;5033944;28;20049;-64
2021/10/16 03:14:48;;;;;;;11.23;7.20;;;7.70;99.90;;;;;;5032982;28;20426;-63
2021/10/16 03:17:14;;;;;;;9.00;7.13;;;7.70;99.90;;;;;;5033762;28;20025;-64
2021/10/16 03:19:40;;;;;;;10.27;7.43;;;7.80;99.90;;;;;;5032924;28;20041;-62
2021/10/16 03:22:07;;;;;;;13.25;8.38;;;7.70;99.90;;;;;;5033554;28;20025;-64
2021/10/16 03:24:34;;;;;;;9.45;6.97;;;7.70;99.90;;;;;;5031901;28;20033;-64
2021/10/16 03:27:00;;;;;;;9.90;7.70;;;7.70;99.90;;;;;;5032759;28;20053;-64
2021/10/16 03:29:26;;;;;;;9.55;7.10;;;7.70;99.90;;;;;;5033117;28;20484;-64
2021/10/16 03:31:51;;;;;;;10.57;6.93;;;7.60;99.90;;;;;;5032840;28;20069;-64
2021/10/16 03:34:17;;;;;;;11.00;6.47;;;7.60;99.90;;;;;;5032244;28;20028;-64
2021/10/16 03:36:43;;;;;;;11.50;7.43;;;7.60;99.90;;;;;;5031564;28;20415;-64
2021/10/16 03:39:08;;;;;;;8.93;6.85;;;7.70;99.90;;;;;;5031961;28;20128;-64
2021/10/16 03:41:34;;;;;;;13.40;6.80;;;7.60;99.90;;;;;;5033781;28;20025;-64
2021/10/16 03:44:00;;;;;;;11.02;7.43;;;7.60;99.90;;;;;;5032461;28;20502;-64
2021/10/16 03:46:25;;;;;;;7.93;6.30;;;7.60;99.90;;;;;;5033052;28;20068;-64
2021/10/16 03:48:51;;;;;;;10.73;8.02;;;7.60;99.90;;;;;;5031191;28;20466;-64
2021/10/16 03:51:16;;;;;;;8.95;6.72;;;7.60;99.90;;;;;;5065142;28;20455;-65
2021/10/16 03:53:42;;;;;;;9.40;7.22;;;7.60;99.90;;;;;;5031176;28;20037;-64
2021/10/16 03:56:08;;;;;;;9.65;7.05;;;7.60;99.90;;;;;;5032726;28;20040;-64
2021/10/16 03:58:33;;;;;;;11.77;6.95;;;7.60;99.90;;;;;;5065048;28;20129;-65
2021/10/16 04:01:03;;;;;;;7.30;6.00;;;7.50;99.90;;;;;;5032308;28;20038;-65
2021/10/16 04:03:29;;;;;;;10.27;6.40;;;7.60;99.90;;;;;;5032979;28;20025;-65
2021/10/16 04:05:55;;;;;;;9.93;6.45;;;7.50;99.90;;;;;;5031989;28;20064;-65
2021/10/16 04:08:21;;;;;;;8.98;6.72;;;7.40;99.90;;;;;;5032630;28;20092;-65
2021/10/16 04:10:47;;;;;;;8.20;6.35;;;7.60;99.90;;;;;;5030734;28;20463;-65
2021/10/16 04:13:13;;;;;;;10.68;6.50;;;7.60;99.90;;;;;;5032779;28;20056;-65
2021/10/16 04:15:39;;;;;;;11.95;6.60;;;7.60;99.90;;;;;;5031374;28;20036;-65
2021/10/16 04:18:05;;;;;;;9.25;6.22;;;7.50;99.90;;;;;;5030492;28;20139;-65
2021/10/16 04:20:31;;;;;;;7.72;6.05;;;7.50;99.90;;;;;;5030913;28;20029;-65
2021/10/16 04:22:57;;;;;;;7.35;5.72;;;7.40;99.90;;;;;;5031896;28;20025;-65
2021/10/16 04:25:23;;;;;;;6.20;5.05;;;7.30;99.90;;;;;;5032193;28;20390;-65
2021/10/16 04:27:50;;;;;;;5.72;5.07;;;7.30;99.90;;;;;;5031530;28;20104;-65
2021/10/16 04:30:16;;;;;;;9.70;5.22;;;7.30;99.90;;;;;;5032268;28;20468;-65
2021/10/16 04:32:42;;;;;;;6.22;5.07;;;7.10;99.90;;;;;;5031954;28;20056;-66
2021/10/16 04:35:09;;;;;;;5.78;4.50;;;7.10;99.90;;;;;;5032439;28;20033;-63
2021/10/16 04:37:35;;;;;;;6.18;4.53;;;6.80;99.90;;;;;;5032256;28;20030;-63
2021/10/16 04:40:10;;;;;;;7.32;5.40;;;6.80;99.90;;;;;;5031219;28;20952;-63
2021/10/16 04:42:36;;;;;;;5.85;4.82;;;6.80;99.90;;;;;;5030769;28;20030;-64
2021/10/16 04:45:02;;;;;;;8.88;6.38;;;6.90;99.90;;;;;;5031484;28;20104;-64
2021/10/16 04:47:28;;;;;;;12.73;6.32;;;6.90;99.90;;;;;;5030249;28;20084;-64
2021/10/16 04:49:54;;;;;;;7.95;6.38;;;6.80;99.90;;;;;;5043029;28;20086;-64
2021/10/16 04:52:20;;;;;;;10.35;6.50;;;6.60;99.90;;;;;;5050187;28;20032;-63
2021/10/16 04:54:46;;;;;;;8.48;6.43;;;6.60;99.90;;;;;;5051015;28;20040;-63
2021/10/16 04:57:11;;;;;;;8.55;6.50;;;6.70;99.90;;;;;;5051626;28;20060;-63
2021/10/16 04:59:37;;;;;;;11.68;6.45;;;6.80;99.90;;;;;;5051633;28;20056;-63
2021/10/16 05:02:02;;;;;;;11.88;6.70;;;6.90;99.90;;;;;;5050970;28;20120;-64
2021/10/16 05:04:29;;;;;;;10.15;7.00;;;6.90;99.90;;;;;;5051367;28;20017;-64
2021/10/16 05:06:55;;;;;;;11.45;7.03;;;7.00;99.90;;;;;;5050818;28;20029;-64
2021/10/16 05:09:21;;;;;;;8.27;5.97;;;7.00;99.90;;;;;;5051200;28;20048;-63
2021/10/16 05:11:46;;;;;;;9.07;6.15;;;7.00;99.90;;;;;;5049499;28;20029;-64
2021/10/16 05:14:12;;;;;;;10.23;5.70;;;6.90;99.90;;;;;;5050050;28;20076;-63
2021/10/16 05:16:38;;;;;;;10.57;6.20;;;7.00;99.90;;;;;;5051815;28;20021;-64
2021/10/16 05:19:04;;;;;;;14.13;7.03;;;6.80;99.90;;;;;;5050607;28;20506;-64
2021/10/16 05:21:30;;;;;;;12.25;6.75;;;6.70;99.90;;;;;;5051505;28;20109;-65
2021/10/16 05:23:56;;;;;;;13.75;7.22;;;6.60;99.90;;;;;;5050856;28;20053;-65
2021/10/16 05:26:21;;;;;;;8.13;5.05;;;6.70;99.90;;;;;;5051062;28;20485;-64
2021/10/16 05:28:47;;;;;;;10.57;5.60;;;6.60;99.90;;;;;;5050978;28;20041;-64
2021/10/16 05:31:12;;;;;;;7.18;5.10;;;6.60;99.90;;;;;;5051350;28;20032;-64
2021/10/16 05:33:38;;;;;;;6.97;4.78;;;6.60;99.90;;;;;;5050977;28;20055;-63
2021/10/16 05:36:04;;;;;;;7.80;4.43;;;6.70;99.90;;;;;;5050570;28;20470;-64
2021/10/16 05:38:30;;;;;;;5.90;4.80;;;6.80;99.90;;;;;;5049888;28;20163;-64
2021/10/16 05:40:55;;;;;;;6.95;5.60;;;6.80;99.90;;;;;;5050430;28;20029;-63
2021/10/16 05:43:21;;;;;;;8.00;4.65;;;6.80;99.90;;;;;;5050030;28;20497;-64
2021/10/16 05:45:47;;;;;;;7.95;5.13;;;6.90;99.90;;;;;;5049139;28;20036;-64
2021/10/16 05:48:12;;;;;;;5.50;4.25;;;6.80;99.90;;;;;;5051038;28;20048;-64
2021/10/16 05:50:38;;;;;;;5.82;4.38;;;6.80;99.90;;;;;;5051217;28;20025;-64
2021/10/16 05:53:04;;;;;;;6.85;4.65;;;6.90;99.90;;;;;;5049029;28;20025;-64
2021/10/16 05:55:30;;;;;;;6.05;4.68;;;6.80;99.90;;;;;;5049417;28;20033;-65
2021/10/16 05:57:55;;;;;;;8.18;5.00;;;6.90;99.90;;;;;;5050216;28;20029;-64
2021/10/16 06:00:21;;;;;;;6.35;4.43;;;6.90;99.90;;;;;;5050784;28;20075;-64
2021/10/16 06:02:47;;;;;;;19.90;6.07;;;6.90;99.90;;;;;;5049012;28;20083;-69
2021/10/16 06:05:12;;;;;;;9.80;5.18;;;7.00;99.90;;;;;;5050965;28;20086;-64
2021/10/16 06:07:38;;;;;;;9.18;5.63;;;7.00;99.90;;;;;;5050715;28;20029;-65
2021/10/16 06:10:04;;;;;;;8.95;4.90;;;7.00;99.90;;;;;;5050146;28;20040;-65
2021/10/16 06:12:30;;;;;;;8.57;5.10;;;7.00;99.90;;;;;;5051051;28;20029;-65
2021/10/16 06:14:55;;;;;;;8.23;4.85;;;7.10;99.90;;;;;;5048828;28;20024;-65
2021/10/16 06:17:21;;;;;;;9.57;5.57;;;7.10;99.90;;;;;;5050838;28;20082;-64
2021/10/16 06:19:47;;;;;;;8.82;5.22;;;7.10;99.90;;;;;;5050654;28;20037;-64
2021/10/16 06:22:13;;;;;;;9.73;4.70;;;7.10;99.90;;;;;;5049574;28;20029;-65
2021/10/16 06:24:38;;;;;;;12.32;5.60;;;7.20;99.90;;;;;;5051023;28;20048;-65
2021/10/16 06:27:04;;;;;;;8.15;4.63;;;7.10;99.90;;;;;;5048649;28;20076;-65
2021/10/16 06:29:30;;;;;;;12.48;4.63;;;7.10;99.90;;;;;;5050832;28;20528;-66
2021/10/16 06:31:55;;;;;;;12.05;5.18;;;7.00;99.90;;;;;;5048822;28;20028;-65
2021/10/16 06:34:21;;;;;;;11.13;3.85;;;7.00;99.90;;;;;;5049338;28;20119;-65
2021/10/16 06:36:47;;;;;;;7.95;4.45;;;7.00;99.90;;;;;;5050387;28;20025;-64
2021/10/16 06:39:13;;;;;;;7.60;3.67;;;7.10;99.90;;;;;;5050021;28;20472;-65
2021/10/16 06:41:38;;;;;;;10.88;4.60;;;7.00;99.90;;;;;;5049340;28;20485;-65
2021/10/16 06:44:04;;;;;;;5.53;4.03;;;7.10;99.90;;;;;;5049961;28;20112;-65
2021/10/16 06:46:30;;;;;;;7.40;4.80;;;7.30;99.90;;;;;;5049135;28;20486;-65
2021/10/16 06:48:55;;;;;;;9.95;5.45;;;7.40;99.90;;;;;;5048583;28;20131;-65
2021/10/16 06:51:21;;;;;;;13.57;6.25;;;7.50;99.90;;;;;;5050384;28;20470;-65
2021/10/16 06:53:47;;;;;;;9.95;5.28;;;7.30;99.90;;;;;;5051265;28;20592;-65
2021/10/16 06:56:12;;;;;;;6.78;4.72;;;7.50;99.90;;;;;;5049926;28;20060;-65
2021/10/16 06:58:38;;;;;;;5.93;3.90;;;7.70;99.90;;;;;;5053741;28;20493;-64
2021/10/16 07:01:04;;;;;;;5.45;4.63;;;7.90;99.90;;;;;;5052813;28;20076;-66
2021/10/16 07:03:29;;;;;;;6.47;4.20;;;8.10;99.90;;;;;;5051719;28;20374;-65
2021/10/16 07:05:56;;;;;;;9.60;4.82;;;8.30;99.90;;;;;;5052812;28;20422;-65
2021/10/16 07:08:25;;;;;;;7.60;4.22;;;8.60;99.90;;;;;;5033821;28;20113;-65
2021/10/16 07:10:51;;;;;;;10.43;4.25;;;8.50;99.90;;;;;;5031930;28;20385;-66
2021/10/16 07:13:17;;;;;;;9.63;4.72;;;8.60;99.90;;;;;;5032593;28;20025;-66
2021/10/16 07:15:43;;;;;;;6.60;4.25;;;8.60;99.90;;;;;;5032573;28;20526;-65
2021/10/16 07:18:08;;;;;;;5.32;4.43;;;8.60;99.90;;;;;;5033410;28;20099;-66
2021/10/16 07:20:34;;;;;;;8.85;3.92;;;8.60;99.90;;;;;;5033900;28;20036;-65
2021/10/16 07:22:59;;;;;;;7.93;4.10;;;8.50;99.90;;;;;;5033127;28;20065;-65
2021/10/16 07:25:25;;;;;;;9.30;4.55;;;8.60;99.90;;;;;;5031916;28;20049;-66
2021/10/16 07:27:51;;;;;;;4.28;3.78;;;8.90;99.90;;;;;;5033055;28;20036;-70
2021/10/16 07:30:18;;;;;;;5.38;3.72;;;8.90;99.90;;;;;;5033940;28;20021;-66
2021/10/16 07:32:45;;;;;;;9.15;4.25;;;9.00;99.90;;;;;;5050546;28;20033;-65
2021/10/16 07:35:11;;;;;;;9.63;4.13;;;9.00;99.90;;;;;;5050937;28;20025;-66
2021/10/16 07:37:37;;;;;;;6.50;3.53;;;9.20;99.90;;;;;;5051042;28;20037;-66
2021/10/16 07:40:04;;;;;;;5.75;4.25;;;9.10;99.90;;;;;;5051960;28;20032;-67
2021/10/16 07:42:29;;;;;;;4.90;3.65;;;9.50;99.90;;;;;;5051461;28;20029;-66
2021/10/16 07:44:55;;;;;;;6.75;4.35;;;9.50;99.90;;;;;;5052129;28;20025;-65
2021/10/16 07:47:20;;;;;;;6.45;4.03;;;9.40;99.90;;;;;;5053007;28;20029;-65
2021/10/16 07:49:46;;;;;;;9.50;4.30;;;9.70;99.90;;;;;;5051650;28;20115;-64
2021/10/16 07:52:12;;;;;;;5.68;3.20;;;10.30;99.90;;;;;;5052660;28;20056;-66
2021/10/16 07:54:38;;;;;;;6.82;3.50;;;10.60;99.90;;;;;;5051495;28;20021;-67
2021/10/16 07:57:03;;;;;;;4.97;3.85;;;11.00;99.90;;;;;;5052402;28;20037;-66
2021/10/16 07:59:29;;;;;;;7.90;3.58;;;11.10;99.90;;;;;;5051979;28;20458;-66
2021/10/16 08:01:55;;;;;;;5.53;4.60;;;11.10;99.90;;;;;;5052392;28;20087;-65
2021/10/16 08:04:20;;;;;;;7.55;3.33;;;10.90;99.90;;;;;;5052799;28;20021;-64
2021/10/16 08:06:46;;;;;;;7.15;3.60;;;11.20;99.90;;;;;;5051826;28;20407;-65
2021/10/16 08:09:12;;;;;;;5.22;3.03;;;11.70;99.90;;;;;;5051735;28;20237;-69
2021/10/16 08:11:37;;;;;;;7.05;3.10;;;12.00;99.90;;;;;;5051272;28;20025;-66
2021/10/16 08:14:03;;;;;;;10.35;3.55;;;12.60;99.90;;;;;;5050391;28;20032;-67
2021/10/16 08:16:29;;;;;;;7.90;3.75;;;13.10;99.90;;;;;;5052674;28;20031;-66
2021/10/16 08:18:54;;;;;;;4.93;2.85;;;13.60;99.90;;;;;;5052052;28;20021;-67
2021/10/16 08:21:20;;;;;;;6.25;2.92;;;13.80;99.90;;;;;;5052688;28;20028;-67
2021/10/16 08:23:46;;;;;;;7.30;2.95;;;13.80;99.90;;;;;;5052446;28;20112;-65
2021/10/16 08:26:11;;;;;;;8.75;2.83;;;14.00;99.90;;;;;;5051698;28;20045;-65
2021/10/16 08:28:37;;;;;;;21.52;3.10;;;14.20;99.90;;;;;;5050601;28;20041;-66
2021/10/16 08:31:04;;;;;;;4.82;2.80;;;14.70;99.90;;;;;;5050080;28;20079;-66
2021/10/16 08:33:33;;;;;;;7.50;2.97;;;15.00;99.90;;;;;;5052495;28;20025;-66
2021/10/16 08:36:00;;;;;;;7.22;2.67;;;15.00;99.90;;;;;;5049823;28;20025;-66
2021/10/16 08:38:26;;;;;;;6.88;2.58;;;15.40;99.90;;;;;;5052157;28;20075;-65
2021/10/16 08:40:52;;;;;;;7.13;3.10;;;15.80;99.60;;;;;;5050537;28;20093;-65
2021/10/16 08:43:18;;;;;;;4.60;2.30;;;15.80;98.40;;;;;;5050036;28;20479;-65
2021/10/16 08:45:45;;;;;;;8.32;3.00;;;16.20;98.60;;;;;;5051493;28;20024;-65
2021/10/16 08:48:12;;;;;;;3.75;2.25;;;16.70;98.00;;;;;;5051020;28;20096;-66
2021/10/16 08:50:38;;;;;;;4.85;1.75;;;15.40;98.80;;;;;;5050110;28;20024;-66
2021/10/16 08:53:04;;;;;;;16.83;4.07;;;15.90;98.20;;;;;;5050795;28;20052;-66
2021/10/16 08:55:30;;;;;;;7.00;2.35;;;16.40;97.90;;;;;;5051192;28;20201;-66
2021/10/16 08:57:56;;;;;;;5.90;2.53;;;16.80;97.00;;;;;;5048682;28;20041;-74
2021/10/16 09:00:51;;;;;;;5.15;2.53;;;16.80;96.40;;;;;;5046572;28;20021;-66
2021/10/16 09:03:29;;;;;;;3.92;2.42;;;16.60;96.80;;;;;;5040520;28;20024;-61
2021/10/16 09:06:20;;;;;;;7.88;2.33;;;17.10;99.60;;;;;;5057460;28;20060;-61
2021/10/16 09:09:09;;;;;;;7.05;3.22;;;17.40;98.20;;;;;;5064929;28;20078;-66
2021/10/16 09:11:40;;;;;;;6.25;3.58;;;17.80;96.10;;;;;;5057351;28;20081;-65
2021/10/16 09:14:08;;;;;;;8.63;2.78;;;17.10;96.00;;;;;;5055368;28;20025;-65
2021/10/16 09:16:39;;;;;;;6.10;2.72;;;17.70;95.30;;;;;;5047841;28;20068;-68
2021/10/16 09:19:43;;;;;;;6.07;2.67;;;17.50;95.50;;;;;;5047291;28;20025;-65
2021/10/16 09:22:20;;;;;;;8.85;2.80;;;17.60;96.00;;;;;;5058463;28;20037;-66
2021/10/16 09:24:48;;;;;;;5.75;2.35;;;17.60;94.80;;;;;;5065813;28;20029;-65
2021/10/16 09:27:16;;;;;;;6.00;2.40;;;17.40;95.30;;;;;;5034855;28;20049;-68
2021/10/16 09:29:48;;;;;;;6.18;2.67;;;17.60;95.20;;;;;;5047779;28;20450;-65
2021/10/16 09:32:24;;;;;;;4.63;2.72;;;17.50;95.10;;;;;;5049568;28;20534;-64
2021/10/16 09:34:58;;;;;;;15.27;2.97;;;18.30;94.80;;;;;;5054422;28;20025;-65
2021/10/16 09:37:24;;;;;;;7.93;2.78;;;18.80;94.40;;;;;;5051126;28;20025;-65
2021/10/16 09:39:49;;;;;;;6.20;2.35;;;18.90;93.90;;;;;;5050142;28;20039;-65
2021/10/16 09:42:17;;;;;;;7.60;2.28;;;19.60;93.30;;;;;;5037320;28;20249;-65
2021/10/16 09:44:47;;;;;;;10.75;2.53;;;18.30;93.50;;;;;;5049076;28;20489;-64
2021/10/16 09:47:17;;;;;;;8.95;2.80;;;18.40;93.70;;;;;;5050122;28;20025;-65
2021/10/16 09:49:49;;;;;;;8.82;2.55;;;18.60;94.20;;;;;;5050709;28;20328;-65
2021/10/16 09:52:19;;;;;;;6.03;2.50;;;18.40;93.60;;;;;;5049945;28;20087;-65
2021/10/16 09:54:47;;;;;;;7.93;2.95;;;18.30;93.70;;;;;;5043908;28;20021;-65
2021/10/16 09:57:14;;;;;;;8.38;2.10;;;17.80;93.90;;;;;;5047532;28;20116;-66
2021/10/16 09:59:42;;;;;;;6.90;2.10;;;19.00;93.40;;;;;;5050003;28;20064;-66
2021/10/16 10:02:09;;;;;;;8.50;2.60;;;18.60;93.40;;;;;;5049037;28;20116;-66
2021/10/16 10:04:38;;;;;;;4.50;2.15;;;18.60;93.60;;;;;;5048436;28;20021;-54
2021/10/16 10:07:04;;;;;;;5.93;2.17;;;19.30;94.90;;;;;;5048934;28;20124;-54
2021/10/16 10:09:31;;;;;;;10.35;1.65;;;20.20;94.10;;;;;;5045364;28;20049;-54
2021/10/16 10:11:57;;;;;;;5.22;2.25;;;20.70;92.80;;;;;;5047434;28;20048;-54
2021/10/16 10:14:24;;;;;;;5.03;1.95;;;20.80;91.70;;;;;;5048477;28;20112;-54
2021/10/16 10:16:59;;;;;;;10.18;2.13;;;21.20;92.30;;;;;;5050498;28;20158;-54
2021/10/16 10:19:25;;;;;;;7.90;2.10;;;21.80;90.70;;;;;;5030772;28;20033;-54
2021/10/16 10:21:52;;;;;;;7.25;2.80;;;21.90;90.50;;;;;;5030257;28;20037;-54
2021/10/16 10:24:17;;;;;;;4.38;2.00;;;22.10;89.90;;;;;;5029315;28;20490;-53
2021/10/16 10:26:46;;;;;;;5.97;1.73;;;22.50;89.20;;;;;;5030754;28;20160;-54
2021/10/16 10:29:20;;;;;;;7.90;2.22;;;22.40;87.50;;;;;;5030508;28;20029;-54
2021/10/16 10:31:53;;;;;;;6.72;2.25;;;23.00;86.90;;;;;;5034300;28;20030;-54
2021/10/16 10:34:22;;;;;;;3.88;2.17;;;22.70;86.50;;;;;;5033137;28;20108;-55
2021/10/16 10:37:01;;;;;;;7.93;1.85;;;22.30;86.60;;;;;;5033939;28;20167;-54
2021/10/16 10:39:33;;;;;;;8.10;2.17;;;21.80;85.80;;;;;;5035269;28;20029;-54
2021/10/16 10:42:14;;;;;;;4.07;2.00;;;22.40;86.00;;;;;;5053903;28;20112;-55
2021/10/16 10:44:40;;;;;;;8.68;2.20;;;22.50;84.30;;;;;;5053841;28;20029;-54
2021/10/16 10:47:31;;;;;;;5.63;1.80;;;22.50;85.00;;;;;;5052735;28;20438;-56
2021/10/16 10:49:58;;;;;;;6.93;2.05;;;22.00;85.20;;;;;;5053374;28;20051;-54
2021/10/16 10:52:27;;;;;;;5.25;2.13;;;22.20;84.40;;;;;;5052547;28;20075;-55
2021/10/16 10:55:00;;;;;;;6.00;2.67;;;21.60;85.30;;;;;;5035562;28;20435;-55
2021/10/16 10:57:44;;;;;;;14.68;3.22;;;21.70;85.10;;;;;;5053765;28;20025;-54
2021/10/16 11:00:15;;;;;;;6.28;2.22;;;21.60;86.10;;;;;;5052808;28;20059;-54
2021/10/16 11:02:41;;;;;;;;;;;21.70;86.70;;;;;;5053999;28;20480;-56
2021/10/16 11:05:35;;;;;;;4.85;2.15;;;22.20;84.00;;;;;;5050893;28;19904;-53
2021/10/16 11:08:14;;;;;;;7.05;2.20;;;22.30;83.20;;;;;;5050277;28;20021;-60
2021/10/16 11:10:41;;;;;;;4.65;1.83;;;22.70;84.80;;;;;;5039132;28;20072;-54
2021/10/16 11:13:12;;;;;;;11.50;2.00;;;22.50;81.20;;;;;;5049696;28;20037;-55
2021/10/16 11:15:38;;;;;;;7.53;1.55;;;22.70;80.70;;;;;;5050984;28;20056;-56
2021/10/16 11:18:13;;;;;;;4.53;1.70;;;22.90;81.40;;;;;;5052871;28;20463;-54
2021/10/16 11:20:40;;;;;;;7.13;1.65;;;22.50;80.60;;;;;;5053474;28;20028;-53
2021/10/16 11:23:07;;;;;;;10.40;1.88;;;22.50;80.90;;;;;;5052423;28;20063;-53
2021/10/16 11:25:34;;;;;;;6.32;1.65;;;22.60;79.90;;;;;;5051723;28;20490;-54
2021/10/16 11:28:02;;;;;;;6.03;1.60;;;22.50;80.30;;;;;;5053310;28;20036;-52
2021/10/16 11:30:29;;;;;;;5.55;1.75;;;21.80;79.80;;;;;;5053333;28;20103;-54
2021/10/16 11:33:09;;;;;;;8.68;1.85;;;22.40;80.90;;;;;;5053106;28;20029;-54
2021/10/16 11:35:46;;;;;;;6.33;2.17;;;22.60;79.80;;;;;;5053346;28;20087;-54
2021/10/16 11:38:17;;;;;;;4.53;1.55;;;22.70;80.40;;;;;;5052066;28;20335;-54
2021/10/16 11:40:43;;;;;;;4.60;1.37;;;23.60;78.70;;;;;;5049984;28;20021;-53
2021/10/16 11:43:14;;;;;;;3.50;1.02;;;23.30;76.40;;;;;;5052128;28;20025;-54
2021/10/16 11:45:42;;;;;;;2.72;1.00;;;22.00;77.90;;;;;;5051135;28;20024;-53
2021/10/16 11:48:10;;;;;;;3.58;1.25;;;21.60;80.60;;;;;;5051844;28;20469;-54
2021/10/16 11:50:57;;;;;;;3.80;2.10;;;22.90;77.80;;;;;;5052490;28;20029;-54
2021/10/16 11:53:31;;;;;;;2.60;1.33;;;21.80;80.10;;;;;;5051467;28;20032;-52
2021/10/16 11:55:59;;;;;;;3.50;1.42;;;21.70;78.40;;;;;;5050824;28;20033;-53
2021/10/16 11:58:27;;;;;;;4.65;2.35;;;22.40;81.10;;;;;;5051929;28;20029;-53
2021/10/16 12:01:01;;;;;;;3.38;1.20;;;22.30;80.90;;;;;;5052600;28;20032;-54
2021/10/16 12:03:29;;;;;;;4.18;1.60;;;22.20;77.50;;;;;;5051772;28;20163;-54
2021/10/16 12:05:57;;;;;;;11.05;1.95;;;22.20;79.30;;;;;;5052528;28;20107;-54
2021/10/16 12:08:27;;;;;;;5.03;1.55;;;22.10;76.50;;;;;;5049741;28;20036;-54
2021/10/16 12:11:03;;;;;;;4.43;1.30;;;22.90;78.10;;;;;;5052457;28;20160;-53
2021/10/16 12:13:32;;;;;;;8.32;1.63;;;22.90;75.20;;;;;;5051117;28;20086;-53
2021/10/16 12:15:58;;;;;;;5.18;1.20;;;22.50;76.40;;;;;;5052042;28;20120;-53
2021/10/16 12:18:27;;;;;;;4.38;1.42;;;22.50;77.70;;;;;;5051439;28;20561;-53
2021/10/16 12:21:00;;;;;;;2.70;1.08;;;22.60;76.50;;;;;;5050032;28;20040;-54
2021/10/16 12:23:47;;;;;;;3.67;0.88;;;22.20;77.00;;;;;;5049508;28;20029;-53
2021/10/16 12:26:23;;;;;;;10.57;1.75;;;22.00;76.60;;;;;;5051139;28;20045;-54
2021/10/16 12:28:51;;;;;;;6.03;1.85;;;22.50;77.50;;;;;;5051662;28;20398;-54
2021/10/16 12:31:18;;;;;;;5.40;1.15;;;23.30;76.10;;;;;;5051262;28;20025;-55
2021/10/16 12:33:55;;;;;;;4.13;1.75;;;22.70;75.80;;;;;;5049961;28;20060;-55
2021/10/16 12:36:31;;;;;;;3.95;1.08;;;23.50;74.70;;;;;;5050422;28;20040;-53
2021/10/16 12:38:57;;;;;;;5.90;1.63;;;23.60;73.30;;;;;;5051021;28;20048;-54
2021/10/16 12:41:27;;;;;;;4.72;1.10;;;22.90;74.60;;;;;;5050099;28;20029;-54
2021/10/16 12:43:55;;;;;;;5.30;1.27;;;23.20;72.90;;;;;;5050899;28;20021;-53
2021/10/16 12:46:28;;;;;;;5.40;0.73;;;23.40;73.70;;;;;;5050352;28;20050;-54
2021/10/16 12:48:56;;;;;;;3.17;0.95;;;23.80;71.80;;;;;;5049470;28;20367;-54
2021/10/16 12:51:39;;;;;;;2.90;0.98;;;23.80;72.30;;;;;;5048692;28;20034;-54
2021/10/16 12:54:05;;;;;;;7.70;1.58;;;24.10;69.80;;;;;;5048810;28;20170;-54